createdAt,value
2018-03-14T00:01:16.775Z,5.04
2018-03-14T00:03:45.870Z,4.94
2018-03-14T00:06:14.956Z,4.97
2018-03-14T00:08:43.329Z,5.02
2018-03-14T00:11:11.661Z,5.00
2018-03-14T00:13:40.112Z,5.02
2018-03-14T00:16:08.505Z,5.03
2018-03-14T00:18:36.829Z,5.11
2018-03-14T00:21:05.156Z,5.13
2018-03-14T00:23:33.524Z,5.13
2018-03-14T00:26:02.303Z,5.20
2018-03-14T00:28:30.681Z,5.24
2018-03-14T00:31:00.200Z,5.11
2018-03-14T00:33:28.548Z,5.09
2018-03-14T00:35:57.109Z,5.15
2018-03-14T00:38:25.760Z,5.23
2018-03-14T00:40:54.107Z,5.16
2018-03-14T00:43:23.305Z,5.21
2018-03-14T00:45:51.804Z,5.20
2018-03-14T00:48:20.207Z,5.22
2018-03-14T00:50:49.325Z,5.20
2018-03-14T00:53:18.268Z,5.23
2018-03-14T00:55:46.634Z,5.31
2018-03-14T00:58:15.751Z,5.27
2018-03-14T01:00:44.085Z,5.32
2018-03-14T01:03:13.912Z,5.26
2018-03-14T01:05:43.025Z,5.14
2018-03-14T01:08:12.112Z,5.07
2018-03-14T01:10:41.773Z,5.06
2018-03-14T01:13:10.137Z,5.04
2018-03-14T01:15:38.461Z,5.09
2018-03-14T01:18:06.788Z,5.12
2018-03-14T01:20:36.587Z,5.19
2018-03-14T01:23:04.904Z,5.11
2018-03-14T01:25:33.232Z,5.07
2018-03-14T01:28:01.611Z,5.07
2018-03-14T01:30:30.705Z,5.12
2018-03-14T01:32:59.801Z,5.22
2018-03-14T01:35:28.157Z,5.30
2018-03-14T01:37:56.484Z,5.38
2018-03-14T01:40:24.804Z,5.30
2018-03-14T01:42:53.602Z,5.26
2018-03-14T01:45:21.932Z,5.28
2018-03-14T01:47:50.261Z,5.37
2018-03-14T01:50:19.871Z,5.28
2018-03-14T01:52:48.234Z,5.20
2018-03-14T01:55:16.588Z,5.18
2018-03-14T01:57:45.821Z,5.01
2018-03-14T02:00:14.148Z,4.96
2018-03-14T02:02:43.053Z,4.92
2018-03-14T02:05:11.372Z,4.87
2018-03-14T02:07:39.689Z,4.88
2018-03-14T02:10:08.053Z,4.85
2018-03-14T02:12:36.382Z,4.83
2018-03-14T02:15:05.134Z,4.89
2018-03-14T02:17:33.549Z,4.96
2018-03-14T02:20:01.876Z,4.95
2018-03-14T02:22:30.756Z,4.94
2018-03-14T02:24:59.136Z,4.90
2018-03-14T02:27:27.519Z,4.88
2018-03-14T02:29:55.852Z,4.90
2018-03-14T02:32:24.241Z,4.87
2018-03-14T02:34:52.623Z,4.83
2018-03-14T02:37:21.146Z,4.90
2018-03-14T02:39:49.503Z,4.86
2018-03-14T02:42:18.314Z,4.89
2018-03-14T02:44:46.776Z,4.92
2018-03-14T02:47:15.120Z,4.91
2018-03-14T02:49:43.429Z,4.91
2018-03-14T02:52:12.414Z,4.92
2018-03-14T02:54:40.730Z,4.92
2018-03-14T02:57:09.088Z,4.88
2018-03-14T02:59:37.972Z,4.85
2018-03-14T03:02:06.289Z,4.85
2018-03-14T03:04:34.828Z,4.82
2018-03-14T03:07:03.187Z,4.82
2018-03-14T03:09:31.492Z,4.81
2018-03-14T03:12:00.379Z,4.85
2018-03-14T03:14:29.256Z,4.82
2018-03-14T03:16:57.563Z,4.80
2018-03-14T03:19:25.869Z,4.83
2018-03-14T03:21:54.216Z,4.79
2018-03-14T03:24:22.793Z,4.79
2018-03-14T03:26:51.147Z,4.79
2018-03-14T03:29:19.461Z,4.79
2018-03-14T03:31:48.540Z,4.79
2018-03-14T03:34:18.684Z,4.78
2018-03-14T03:36:47.333Z,4.77
2018-03-14T03:39:15.650Z,4.73
2018-03-14T03:41:44.468Z,4.77
2018-03-14T03:44:12.782Z,4.75
2018-03-14T03:46:41.168Z,4.75
2018-03-14T03:49:09.677Z,4.75
2018-03-14T03:51:38.053Z,4.74
2018-03-14T03:54:06.368Z,4.74
2018-03-14T03:56:34.762Z,4.74
2018-03-14T03:59:03.163Z,4.69
2018-03-14T04:01:31.675Z,4.75
2018-03-14T04:04:00.020Z,4.75
2018-03-14T04:06:28.329Z,4.75
2018-03-14T04:08:56.635Z,4.71
2018-03-14T04:11:24.996Z,4.71
2018-03-14T04:13:54.031Z,4.71
2018-03-14T04:16:22.892Z,4.69
2018-03-14T04:18:51.604Z,4.68
2018-03-14T04:21:20.197Z,4.72
2018-03-14T04:23:50.044Z,4.68
2018-03-14T04:26:19.314Z,4.66
2018-03-14T04:28:47.695Z,4.66
2018-03-14T04:31:16.137Z,4.66
2018-03-14T04:33:44.440Z,4.65
2018-03-14T04:36:12.984Z,4.64
2018-03-14T04:38:41.349Z,4.66
2018-03-14T04:41:09.659Z,4.57
2018-03-14T04:43:37.967Z,4.53
2018-03-14T04:46:06.371Z,4.52
2018-03-14T04:48:34.733Z,4.53
2018-03-14T04:51:03.141Z,4.53
2018-03-14T04:53:31.504Z,4.49
2018-03-14T04:56:01.108Z,4.51
2018-03-14T04:58:29.428Z,4.51
2018-03-14T05:00:57.768Z,4.49
2018-03-14T05:03:26.084Z,4.50
2018-03-14T05:05:54.403Z,4.48
2018-03-14T05:08:22.763Z,4.48
2018-03-14T05:10:51.458Z,4.50
2018-03-14T05:13:20.200Z,4.51
2018-03-14T05:15:48.774Z,4.51
2018-03-14T05:18:17.084Z,4.52
2018-03-14T05:20:45.384Z,4.52
2018-03-14T05:23:13.736Z,4.51
2018-03-14T05:25:42.048Z,4.56
2018-03-14T05:28:10.360Z,4.66
2018-03-14T05:30:38.803Z,4.58
2018-03-14T05:33:08.580Z,4.59
2018-03-14T05:35:37.521Z,4.60
2018-03-14T05:38:06.580Z,4.56
2018-03-14T05:40:35.040Z,4.50
2018-03-14T05:43:03.319Z,4.52
2018-03-14T05:45:32.168Z,4.47
2018-03-14T05:48:01.345Z,4.58
2018-03-14T05:50:29.654Z,4.58
2018-03-14T05:52:57.956Z,4.61
2018-03-14T05:55:26.304Z,4.62
2018-03-14T05:57:54.608Z,4.59
2018-03-14T06:00:22.928Z,4.58
2018-03-14T06:02:51.366Z,4.56
2018-03-14T06:05:19.737Z,4.50
2018-03-14T06:07:48.016Z,4.42
2018-03-14T06:10:20.184Z,4.38
2018-03-14T06:12:48.488Z,4.40
2018-03-14T06:15:16.800Z,4.40
2018-03-14T06:17:45.144Z,4.45
2018-03-14T06:20:13.457Z,4.52
2018-03-14T06:22:42.820Z,4.56
2018-03-14T06:25:11.960Z,4.55
2018-03-14T06:27:40.640Z,4.52
2018-03-14T06:30:09.524Z,4.53
2018-03-14T06:32:37.869Z,4.56
2018-03-14T06:35:06.792Z,4.66
2018-03-14T06:37:35.100Z,4.88
2018-03-14T06:40:04.064Z,5.07
2018-03-14T06:42:32.367Z,5.21
2018-03-14T06:45:00.676Z,5.36
2018-03-14T06:47:29.726Z,5.43
2018-03-14T06:49:58.037Z,5.67
2018-03-14T06:52:26.340Z,5.73
2018-03-14T06:54:54.677Z,5.89
2018-03-14T06:57:22.985Z,6.08
2018-03-14T07:00:09.129Z,6.25
2018-03-14T07:02:49.793Z,6.30
2018-03-14T07:05:36.492Z,6.29
2018-03-14T07:08:04.808Z,6.59
2018-03-14T07:10:33.144Z,6.11
2018-03-14T07:13:01.455Z,6.21
2018-03-14T07:15:29.840Z,6.22
2018-03-14T07:17:58.191Z,6.46
2018-03-14T07:20:26.546Z,6.65
2018-03-14T07:22:54.861Z,6.88
2018-03-14T07:25:24.027Z,7.12
2018-03-14T07:27:52.339Z,7.37
2018-03-14T07:30:20.652Z,7.34
2018-03-14T07:32:48.994Z,7.31
2018-03-14T07:35:18.089Z,7.49
2018-03-14T07:37:47.680Z,7.60
2018-03-14T07:40:16.189Z,7.80
2018-03-14T07:42:45.048Z,8.05
2018-03-14T07:45:13.385Z,8.04
2018-03-14T07:47:41.749Z,8.23
2018-03-14T07:50:10.052Z,7.82
2018-03-14T07:52:38.364Z,8.10
2018-03-14T07:55:06.731Z,8.60
2018-03-14T07:57:35.042Z,8.66
2018-03-14T08:00:03.352Z,8.36
2018-03-14T08:02:31.709Z,7.58
2018-03-14T08:05:00.017Z,8.06
2018-03-14T08:07:28.317Z,7.56
2018-03-14T08:09:56.917Z,7.76
2018-03-14T08:12:25.377Z,8.14
2018-03-14T08:14:53.689Z,7.82
2018-03-14T08:17:21.998Z,8.33
2018-03-14T08:19:50.344Z,7.38
2018-03-14T08:22:19.702Z,7.55
2018-03-14T08:24:48.016Z,7.69
2018-03-14T08:27:16.360Z,7.37
2018-03-14T08:29:44.663Z,7.89
2018-03-14T08:32:13.007Z,7.87
2018-03-14T08:34:41.363Z,7.89
2018-03-14T08:37:10.502Z,7.91
2018-03-14T08:39:39.632Z,7.97
2018-03-14T08:42:07.937Z,8.67
2018-03-14T08:44:36.830Z,10.26
2018-03-14T08:47:05.193Z,9.90
2018-03-14T08:49:33.500Z,11.56
2018-03-14T08:52:02.792Z,13.96
2018-03-14T08:54:31.154Z,14.89
2018-03-14T08:57:00.224Z,13.10
2018-03-14T08:59:29.356Z,11.35
2018-03-14T09:01:58.449Z,10.30
2018-03-14T09:04:27.523Z,10.14
2018-03-14T09:06:55.820Z,9.13
2018-03-14T09:09:24.172Z,9.93
2018-03-14T09:11:52.485Z,9.61
2018-03-14T09:14:20.808Z,8.99
2018-03-14T09:16:50.214Z,10.00
2018-03-14T09:19:18.515Z,12.12
2018-03-14T09:21:46.829Z,9.83
2018-03-14T09:24:15.168Z,9.56
2018-03-14T09:26:43.485Z,9.49
2018-03-14T09:29:12.417Z,9.44
2018-03-14T09:31:41.498Z,9.97
2018-03-14T09:34:09.815Z,12.01
2018-03-14T09:36:38.127Z,15.02
2018-03-14T09:39:06.648Z,16.68
2018-03-14T09:41:35.763Z,17.86
2018-03-14T09:44:04.044Z,11.81
2018-03-14T09:46:32.960Z,12.61
2018-03-14T09:49:01.288Z,13.65
2018-03-14T09:51:30.239Z,12.58
2018-03-14T09:53:59.132Z,15.14
2018-03-14T09:56:27.452Z,15.32
2018-03-14T09:58:56.448Z,12.93
2018-03-14T10:01:24.928Z,11.97
2018-03-14T10:03:53.943Z,13.24
2018-03-14T10:06:22.452Z,14.56
2018-03-14T10:08:50.779Z,14.78
2018-03-14T10:11:19.873Z,19.89
2018-03-14T10:13:48.672Z,17.61
2018-03-14T10:16:17.766Z,11.60
2018-03-14T10:18:46.624Z,10.77
2018-03-14T10:21:15.233Z,11.60
2018-03-14T10:23:43.992Z,15.01
2018-03-14T10:26:12.615Z,15.82
2018-03-14T10:28:41.112Z,17.97
2018-03-14T10:31:09.542Z,23.68
2018-03-14T10:33:37.905Z,26.75
2018-03-14T10:36:06.409Z,23.98
2018-03-14T10:38:36.472Z,28.21
2018-03-14T10:41:04.806Z,30.58
2018-03-14T10:43:33.102Z,27.92
2018-03-14T10:46:02.089Z,25.93
2018-03-14T10:48:30.965Z,24.87
2018-03-14T10:50:59.683Z,30.39
2018-03-14T10:53:28.109Z,26.60
2018-03-14T10:55:56.451Z,24.78
2018-03-14T10:58:25.156Z,23.09
2018-03-14T11:01:12.132Z,22.34
2018-03-14T11:03:45.324Z,20.23
2018-03-14T11:06:13.693Z,18.35
2018-03-14T11:08:42.204Z,18.56
2018-03-14T11:11:11.067Z,15.17
2018-03-14T11:13:39.452Z,21.42
2018-03-14T11:16:07.760Z,25.55
2018-03-14T11:18:36.073Z,21.18
2018-03-14T11:21:04.968Z,22.38
2018-03-14T11:23:33.496Z,24.41
2018-03-14T11:26:02.365Z,31.38
2018-03-14T11:28:30.728Z,31.33
2018-03-14T11:30:59.996Z,25.03
2018-03-14T11:33:28.308Z,20.86
2018-03-14T11:35:56.685Z,19.38
2018-03-14T11:38:26.807Z,21.40
2018-03-14T11:40:55.117Z,24.62
2018-03-14T11:43:23.579Z,27.60
2018-03-14T11:45:52.093Z,28.05
2018-03-14T11:48:20.437Z,26.53
2018-03-14T11:50:49.004Z,27.95
2018-03-14T11:53:17.360Z,30.16
2018-03-14T11:55:45.680Z,28.97
2018-03-14T11:58:14.280Z,27.77
2018-03-14T12:00:42.637Z,27.59
2018-03-14T12:03:11.527Z,25.29
2018-03-14T12:05:39.841Z,27.66
2018-03-14T12:08:08.676Z,28.95
2018-03-14T12:10:37.047Z,29.14
2018-03-14T12:13:05.356Z,26.87
2018-03-14T12:15:34.451Z,26.42
2018-03-14T12:18:02.986Z,25.71
2018-03-14T12:20:31.299Z,25.53
2018-03-14T12:23:00.740Z,24.84
2018-03-14T12:25:29.119Z,24.94
2018-03-14T12:27:57.432Z,26.21
2018-03-14T12:30:26.254Z,25.01
2018-03-14T12:32:54.616Z,26.35
2018-03-14T12:35:23.009Z,26.57
2018-03-14T12:37:51.312Z,24.50
2018-03-14T12:40:20.212Z,26.23
2018-03-14T12:42:48.537Z,22.33
2018-03-14T12:45:17.273Z,24.25
2018-03-14T12:47:45.877Z,25.54
2018-03-14T12:50:14.228Z,21.90
2018-03-14T12:52:42.693Z,23.04
2018-03-14T12:55:11.000Z,22.45
2018-03-14T12:57:39.930Z,23.98
2018-03-14T13:00:08.348Z,18.91
2018-03-14T13:02:37.292Z,14.88
2018-03-14T13:05:05.601Z,12.99
2018-03-14T13:07:33.904Z,12.66
2018-03-14T13:10:02.852Z,12.35
2018-03-14T13:12:31.600Z,12.16
2018-03-14T13:14:59.923Z,11.86
2018-03-14T13:17:28.684Z,11.65
2018-03-14T13:19:57.235Z,11.45
2018-03-14T13:22:25.557Z,11.44
2018-03-14T13:24:53.922Z,11.48
2018-03-14T13:27:22.700Z,11.53
2018-03-14T13:29:51.017Z,11.96
2018-03-14T13:32:19.735Z,12.18
2018-03-14T13:34:48.552Z,12.86
2018-03-14T13:37:17.162Z,15.54
2018-03-14T13:39:45.939Z,19.40
2018-03-14T13:42:14.256Z,21.06
2018-03-14T13:44:42.980Z,21.59
2018-03-14T13:47:11.288Z,20.19
2018-03-14T13:49:39.596Z,16.38
2018-03-14T13:52:08.656Z,15.22
2018-03-14T13:54:36.985Z,14.32
2018-03-14T13:57:05.304Z,15.48
2018-03-14T13:59:33.681Z,15.56
2018-03-14T14:02:02.007Z,15.76
2018-03-14T14:04:30.724Z,14.86
2018-03-14T14:06:59.380Z,13.09
2018-03-14T14:09:27.760Z,13.12
2018-03-14T14:11:56.072Z,12.59
2018-03-14T14:14:24.585Z,12.66
2018-03-14T14:16:52.928Z,12.70
2018-03-14T14:19:21.244Z,12.92
2018-03-14T14:21:49.616Z,12.62
2018-03-14T14:24:17.929Z,12.51
2018-03-14T14:26:46.241Z,12.62
2018-03-14T14:29:14.585Z,11.98
2018-03-14T14:31:42.891Z,11.76
2018-03-14T14:34:11.864Z,11.45
2018-03-14T14:36:40.843Z,11.35
2018-03-14T14:39:09.560Z,11.01
2018-03-14T14:41:38.970Z,10.89
2018-03-14T14:44:08.083Z,10.84
2018-03-14T14:46:36.397Z,10.84
2018-03-14T14:49:04.718Z,10.98
2018-03-14T14:51:33.888Z,10.75
2018-03-14T14:54:02.217Z,10.62
2018-03-14T14:56:30.536Z,10.70
2018-03-14T14:58:58.900Z,10.74
2018-03-14T15:01:27.220Z,10.77
2018-03-14T15:03:55.540Z,10.88
2018-03-14T15:06:24.418Z,10.67
2018-03-14T15:08:52.730Z,10.69
2018-03-14T15:11:21.096Z,10.65
2018-03-14T15:13:49.400Z,10.77
2018-03-14T15:16:18.292Z,10.86
2018-03-14T15:18:46.625Z,10.79
2018-03-14T15:21:15.219Z,10.53
2018-03-14T15:23:43.532Z,10.62
2018-03-14T15:26:12.492Z,10.73
2018-03-14T15:28:43.536Z,10.74
2018-03-14T15:31:12.050Z,10.58
2018-03-14T15:33:41.160Z,10.70
2018-03-14T15:36:09.481Z,10.55
2018-03-14T15:38:37.800Z,10.48
2018-03-14T15:41:06.816Z,10.52
2018-03-14T15:43:35.140Z,10.56
2018-03-14T15:46:03.661Z,10.53
2018-03-14T15:48:32.448Z,10.47
2018-03-14T15:51:00.945Z,10.35
2018-03-14T15:53:29.256Z,10.36
2018-03-14T15:55:57.598Z,10.34
2018-03-14T15:58:26.680Z,10.36
2018-03-14T16:00:56.280Z,10.24
2018-03-14T16:03:24.600Z,10.25
2018-03-14T16:05:52.931Z,10.27
2018-03-14T16:08:21.285Z,10.25
2018-03-14T16:10:49.604Z,10.19
2018-03-14T16:13:17.974Z,10.10
2018-03-14T16:15:46.284Z,10.05
2018-03-14T16:18:15.361Z,9.99
2018-03-14T16:20:44.717Z,10.00
2018-03-14T16:23:13.385Z,9.93
2018-03-14T16:25:42.588Z,9.93
2018-03-14T16:28:10.996Z,9.89
2018-03-14T16:30:39.344Z,9.72
2018-03-14T16:33:09.091Z,9.67
2018-03-14T16:35:37.682Z,9.58
2018-03-14T16:38:07.095Z,9.45
2018-03-14T16:40:36.280Z,9.34
2018-03-14T16:43:04.585Z,9.28
2018-03-14T16:45:33.464Z,9.14
2018-03-14T16:48:02.984Z,9.14
2018-03-14T16:50:31.291Z,9.09
2018-03-14T16:52:59.649Z,8.97
2018-03-14T16:55:28.725Z,8.77
2018-03-14T16:57:58.308Z,8.88
2018-03-14T17:13:14.692Z,8.55
2018-03-14T17:15:43.069Z,8.51
2018-03-14T17:18:11.353Z,8.29
2018-03-14T17:20:39.770Z,8.21
2018-03-14T17:23:08.336Z,8.20
2018-03-14T17:25:37.744Z,8.18
2018-03-14T17:28:06.052Z,7.95
2018-03-14T17:30:34.590Z,7.75
2018-03-14T17:33:02.948Z,7.55
2018-03-14T17:35:31.824Z,7.46
2018-03-14T17:38:01.164Z,7.30
2018-03-14T17:40:29.545Z,7.24
2018-03-14T17:42:57.856Z,7.46
2018-03-14T17:45:26.452Z,7.28
2018-03-14T17:47:55.517Z,6.98
2018-03-14T17:50:23.819Z,6.76
2018-03-14T17:52:52.494Z,6.47
2018-03-14T17:55:21.478Z,6.36
2018-03-14T17:57:49.756Z,6.24
2018-03-14T18:00:18.060Z,6.62
2018-03-14T18:02:46.412Z,6.58
2018-03-14T18:05:17.045Z,6.54
2018-03-14T18:07:45.393Z,6.90
2018-03-14T18:10:13.796Z,6.87
2018-03-14T18:12:42.104Z,6.75
2018-03-14T18:15:11.853Z,6.48
2018-03-14T18:17:40.848Z,6.52
2018-03-14T18:20:09.172Z,6.23
2018-03-14T18:22:37.485Z,6.04
2018-03-14T18:25:06.544Z,6.04
2018-03-14T18:27:34.854Z,6.08
2018-03-14T18:30:03.662Z,6.13
2018-03-14T18:32:32.772Z,6.07
2018-03-14T18:35:01.144Z,5.97
2018-03-14T18:37:30.246Z,5.70
2018-03-14T18:39:59.322Z,5.60
2018-03-14T18:42:27.695Z,5.73
2018-03-14T18:44:56.088Z,5.85
2018-03-14T18:47:24.650Z,5.76
2018-03-14T18:49:53.773Z,5.69
2018-03-14T18:52:22.085Z,5.68
2018-03-14T18:54:50.384Z,5.77
2018-03-14T18:57:18.748Z,5.52
2018-03-14T18:59:47.060Z,5.32
2018-03-14T19:02:16.289Z,5.32
2018-03-14T19:04:45.499Z,5.56
2018-03-14T19:07:13.807Z,5.52
2018-03-14T19:09:42.113Z,5.53
2018-03-14T19:12:10.468Z,5.43
2018-03-14T19:14:39.404Z,5.30
2018-03-14T19:17:08.944Z,5.26
2018-03-14T19:19:38.267Z,5.48
2018-03-14T19:22:06.689Z,5.43
2018-03-14T19:24:35.146Z,5.47
2018-03-14T19:27:03.499Z,5.45
2018-03-14T19:29:31.861Z,5.27
2018-03-14T19:32:00.172Z,5.40
2018-03-14T19:34:29.008Z,5.28
2018-03-14T19:36:58.024Z,5.07
2018-03-14T19:39:27.282Z,4.97
2018-03-14T19:41:57.224Z,4.81
2018-03-14T19:44:26.959Z,4.81
2018-03-14T19:46:56.078Z,4.92
2018-03-14T19:49:25.953Z,4.90
2018-03-14T19:51:55.860Z,4.98
2018-03-14T19:54:24.557Z,4.88
2018-03-14T19:56:53.888Z,4.93
2018-03-14T19:59:23.936Z,4.77
2018-03-14T20:01:54.800Z,4.68
2018-03-14T20:04:23.692Z,4.72
2018-03-14T20:06:53.687Z,4.48
2018-03-14T20:09:22.144Z,4.46
2018-03-14T20:11:50.582Z,4.45
2018-03-14T20:14:19.726Z,4.44
2018-03-14T20:16:49.856Z,4.37
2018-03-14T20:19:18.236Z,4.29
2018-03-14T20:21:47.603Z,4.18
2018-03-14T20:24:16.445Z,4.26
2018-03-14T20:26:45.541Z,4.22
2018-03-14T20:29:14.890Z,4.20
2018-03-14T20:31:43.969Z,4.19
2018-03-14T20:34:16.080Z,4.40
2018-03-14T20:36:48.332Z,4.62
2018-03-14T20:39:16.801Z,4.65
2018-03-14T20:41:45.221Z,4.56
2018-03-14T20:44:13.679Z,4.69
2018-03-14T20:46:42.497Z,4.67
2018-03-14T20:49:11.593Z,4.80
2018-03-14T20:51:39.937Z,4.77
2018-03-14T20:54:08.472Z,4.73
2018-03-14T20:56:37.132Z,4.47
2018-03-14T20:59:05.569Z,4.65
2018-03-14T21:01:33.867Z,4.72
2018-03-14T21:04:02.627Z,4.74
2018-03-14T21:06:31.087Z,4.66
2018-03-14T21:09:00.764Z,4.55
2018-03-14T21:11:30.787Z,4.54
2018-03-14T21:13:59.564Z,4.35
2018-03-14T21:16:27.920Z,4.43
2018-03-14T21:18:56.304Z,4.32
2018-03-14T21:21:24.754Z,4.32
2018-03-14T21:23:53.247Z,4.31
2018-03-14T21:26:21.608Z,4.25
2018-03-14T21:28:49.936Z,4.23
2018-03-14T21:31:18.944Z,4.01
2018-03-14T21:33:47.568Z,4.00
2018-03-14T21:36:15.891Z,4.12
2018-03-14T21:38:44.212Z,4.20
2018-03-14T21:41:14.417Z,4.14
2018-03-14T21:43:42.728Z,4.05
2018-03-14T21:46:11.700Z,3.98
2018-03-14T21:48:40.772Z,4.03
2018-03-14T21:51:09.351Z,4.01
2018-03-14T21:53:38.094Z,3.98
2018-03-14T21:56:06.440Z,4.02
2018-03-14T21:58:35.604Z,4.08
2018-03-14T22:01:04.123Z,3.96
2018-03-14T22:03:32.440Z,4.04
2018-03-14T22:06:00.789Z,3.98
2018-03-14T22:08:29.229Z,3.97
2018-03-14T22:10:57.581Z,3.75
2018-03-14T22:13:26.228Z,3.69
2018-03-14T22:15:54.532Z,3.61
2018-03-14T22:18:23.530Z,3.89
2018-03-14T22:20:52.576Z,3.92
2018-03-14T22:23:20.880Z,3.88
2018-03-14T22:25:49.237Z,3.69
2018-03-14T22:28:17.980Z,3.78
2018-03-14T22:30:46.292Z,3.74
2018-03-14T22:33:14.795Z,3.80
2018-03-14T22:35:43.101Z,4.07
2018-03-14T22:38:11.476Z,3.96
2018-03-14T22:40:40.424Z,3.94
2018-03-14T22:43:08.744Z,3.91
2018-03-14T22:45:37.080Z,3.84
2018-03-14T22:48:05.379Z,3.85
2018-03-14T22:50:33.721Z,3.91
2018-03-14T22:53:02.036Z,3.91
2018-03-14T22:55:31.056Z,3.99
2018-03-14T22:57:59.368Z,3.94
2018-03-14T23:00:27.684Z,3.83
2018-03-14T23:02:56.025Z,3.83
2018-03-14T23:05:24.329Z,3.77
2018-03-14T23:07:53.887Z,3.90
2018-03-14T23:10:22.402Z,3.84
2018-03-14T23:12:51.444Z,3.94
2018-03-14T23:15:20.564Z,3.79
2018-03-14T23:17:49.612Z,3.69
2018-03-14T23:20:18.080Z,3.75
2018-03-14T23:22:47.150Z,3.84
2018-03-14T23:25:15.456Z,3.82
2018-03-14T23:27:44.572Z,3.74
2018-03-14T23:30:13.425Z,3.64
2018-03-14T23:32:41.773Z,3.78
2018-03-14T23:35:10.093Z,3.68
2018-03-14T23:37:38.469Z,3.95
2018-03-14T23:40:06.785Z,3.99
2018-03-14T23:42:35.087Z,3.85
2018-03-14T23:45:03.471Z,4.02
2018-03-14T23:47:32.201Z,3.96
2018-03-14T23:50:01.323Z,3.94
2018-03-14T23:52:29.632Z,3.76
2018-03-14T23:54:57.942Z,4.00
2018-03-14T23:57:26.279Z,3.85
2018-03-14T23:59:54.593Z,3.85
